sensor_id;sensor_type;location;lat;lon;timestamp;P1;durP1;ratioP1;P2;durP2;ratioP2
52854;SDS011;38719;51.418;7.286;2022-10-23T00:01:44;6.22;;;2.47;;
52854;SDS011;38719;51.418;7.286;2022-10-23T00:04:12;12.23;;;2.45;;
52854;SDS011;38719;51.418;7.286;2022-10-23T00:06:41;4.38;;;2.30;;
52854;SDS011;38719;51.418;7.286;2022-10-23T00:09:11;8.63;;;2.33;;
52854;SDS011;38719;51.418;7.286;2022-10-23T00:11:41;11.48;;;2.70;;
52854;SDS011;38719;51.418;7.286;2022-10-23T00:14:09;5.00;;;2.60;;
52854;SDS011;38719;51.418;7.286;2022-10-23T00:16:37;4.35;;;2.35;;
52854;SDS011;38719;51.418;7.286;2022-10-23T00:19:04;9.00;;;2.80;;
52854;SDS011;38719;51.418;7.286;2022-10-23T00:21:32;5.18;;;2.97;;
52854;SDS011;38719;51.418;7.286;2022-10-23T00:24:00;14.70;;;3.60;;
52854;SDS011;38719;51.418;7.286;2022-10-23T00:26:29;7.97;;;3.22;;
52854;SDS011;38719;51.418;7.286;2022-10-23T00:28:56;3.95;;;2.45;;
52854;SDS011;38719;51.418;7.286;2022-10-23T00:31:24;8.63;;;2.70;;
52854;SDS011;38719;51.418;7.286;2022-10-23T00:33:52;5.22;;;2.70;;
52854;SDS011;38719;51.418;7.286;2022-10-23T00:36:20;7.60;;;3.03;;
52854;SDS011;38719;51.418;7.286;2022-10-23T00:38:48;11.80;;;2.90;;
52854;SDS011;38719;51.418;7.286;2022-10-23T00:41:18;3.33;;;2.47;;
52854;SDS011;38719;51.418;7.286;2022-10-23T00:43:59;4.75;;;2.30;;
52854;SDS011;38719;51.418;7.286;2022-10-23T00:46:30;7.38;;;2.97;;
52854;SDS011;38719;51.418;7.286;2022-10-23T00:48:58;9.10;;;2.80;;
52854;SDS011;38719;51.418;7.286;2022-10-23T00:51:27;4.25;;;2.47;;
52854;SDS011;38719;51.418;7.286;2022-10-23T00:53:59;8.48;;;2.67;;
52854;SDS011;38719;51.418;7.286;2022-10-23T00:56:48;4.70;;;2.55;;
52854;SDS011;38719;51.418;7.286;2022-10-23T00:59:18;9.32;;;3.00;;
52854;SDS011;38719;51.418;7.286;2022-10-23T01:01:46;6.53;;;2.45;;
52854;SDS011;38719;51.418;7.286;2022-10-23T01:04:14;7.90;;;2.55;;
52854;SDS011;38719;51.418;7.286;2022-10-23T01:06:44;9.52;;;2.47;;
52854;SDS011;38719;51.418;7.286;2022-10-23T01:09:20;7.75;;;3.15;;
52854;SDS011;38719;51.418;7.286;2022-10-23T01:11:56;10.25;;;3.05;;
52854;SDS011;38719;51.418;7.286;2022-10-23T01:14:31;9.98;;;3.08;;
52854;SDS011;38719;51.418;7.286;2022-10-23T01:17:05;4.70;;;2.70;;
52854;SDS011;38719;51.418;7.286;2022-10-23T01:19:42;8.18;;;2.42;;
52854;SDS011;38719;51.418;7.286;2022-10-23T01:22:20;6.03;;;2.50;;
52854;SDS011;38719;51.418;7.286;2022-10-23T01:24:59;12.05;;;2.53;;
52854;SDS011;38719;51.418;7.286;2022-10-23T01:27:34;6.35;;;2.78;;
52854;SDS011;38719;51.418;7.286;2022-10-23T01:30:06;10.63;;;2.63;;
52854;SDS011;38719;51.418;7.286;2022-10-23T01:32:38;7.45;;;2.90;;
52854;SDS011;38719;51.418;7.286;2022-10-23T01:35:11;7.28;;;2.95;;
52854;SDS011;38719;51.418;7.286;2022-10-23T01:37:41;4.68;;;2.50;;
52854;SDS011;38719;51.418;7.286;2022-10-23T01:40:14;5.50;;;2.42;;
52854;SDS011;38719;51.418;7.286;2022-10-23T01:42:51;5.22;;;2.45;;
52854;SDS011;38719;51.418;7.286;2022-10-23T01:45:22;4.47;;;2.30;;
52854;SDS011;38719;51.418;7.286;2022-10-23T01:47:54;8.18;;;3.13;;
52854;SDS011;38719;51.418;7.286;2022-10-23T01:50:22;5.40;;;2.40;;
52854;SDS011;38719;51.418;7.286;2022-10-23T01:52:52;11.73;;;2.80;;
52854;SDS011;38719;51.418;7.286;2022-10-23T01:55:20;4.53;;;2.53;;
52854;SDS011;38719;51.418;7.286;2022-10-23T01:57:51;6.88;;;2.75;;
52854;SDS011;38719;51.418;7.286;2022-10-23T02:00:19;8.30;;;3.33;;
52854;SDS011;38719;51.418;7.286;2022-10-23T02:02:47;5.53;;;2.38;;
52854;SDS011;38719;51.418;7.286;2022-10-23T02:05:17;9.15;;;2.67;;
52854;SDS011;38719;51.418;7.286;2022-10-23T02:07:49;4.88;;;2.45;;
52854;SDS011;38719;51.418;7.286;2022-10-23T02:10:18;5.65;;;2.58;;
52854;SDS011;38719;51.418;7.286;2022-10-23T02:12:48;6.28;;;2.67;;
52854;SDS011;38719;51.418;7.286;2022-10-23T02:15:25;11.05;;;2.67;;
52854;SDS011;38719;51.418;7.286;2022-10-23T02:18:01;6.90;;;2.70;;
52854;SDS011;38719;51.418;7.286;2022-10-23T02:20:36;8.55;;;2.60;;
52854;SDS011;38719;51.418;7.286;2022-10-23T02:23:10;7.13;;;2.63;;
52854;SDS011;38719;51.418;7.286;2022-10-23T02:25:48;5.60;;;2.55;;
52854;SDS011;38719;51.418;7.286;2022-10-23T02:28:23;5.10;;;2.63;;
52854;SDS011;38719;51.418;7.286;2022-10-23T02:30:54;8.20;;;2.47;;
52854;SDS011;38719;51.418;7.286;2022-10-23T02:33:25;10.27;;;2.40;;
52854;SDS011;38719;51.418;7.286;2022-10-23T02:35:54;10.10;;;2.60;;
52854;SDS011;38719;51.418;7.286;2022-10-23T02:38:25;8.85;;;2.50;;
52854;SDS011;38719;51.418;7.286;2022-10-23T02:40:56;6.30;;;2.55;;
52854;SDS011;38719;51.418;7.286;2022-10-23T02:43:27;5.85;;;2.83;;
52854;SDS011;38719;51.418;7.286;2022-10-23T02:46:01;5.18;;;2.72;;
52854;SDS011;38719;51.418;7.286;2022-10-23T02:48:37;5.40;;;2.47;;
52854;SDS011;38719;51.418;7.286;2022-10-23T02:51:10;8.00;;;2.60;;
52854;SDS011;38719;51.418;7.286;2022-10-23T02:53:44;5.20;;;2.33;;
52854;SDS011;38719;51.418;7.286;2022-10-23T02:56:26;8.13;;;2.78;;
52854;SDS011;38719;51.418;7.286;2022-10-23T02:59:05;4.47;;;2.60;;
52854;SDS011;38719;51.418;7.286;2022-10-23T03:01:37;7.00;;;2.40;;
52854;SDS011;38719;51.418;7.286;2022-10-23T03:04:13;10.48;;;2.50;;
52854;SDS011;38719;51.418;7.286;2022-10-23T03:06:43;3.92;;;2.28;;
52854;SDS011;38719;51.418;7.286;2022-10-23T03:09:11;11.20;;;2.72;;
52854;SDS011;38719;51.418;7.286;2022-10-23T03:11:39;4.78;;;2.20;;
52854;SDS011;38719;51.418;7.286;2022-10-23T03:14:07;7.03;;;2.35;;
52854;SDS011;38719;51.418;7.286;2022-10-23T03:16:35;5.60;;;2.40;;
52854;SDS011;38719;51.418;7.286;2022-10-23T03:19:03;6.85;;;2.40;;
52854;SDS011;38719;51.418;7.286;2022-10-23T03:21:31;5.57;;;2.47;;
52854;SDS011;38719;51.418;7.286;2022-10-23T03:23:58;6.53;;;2.25;;
52854;SDS011;38719;51.418;7.286;2022-10-23T03:26:26;3.88;;;2.33;;
52854;SDS011;38719;51.418;7.286;2022-10-23T03:28:53;8.68;;;2.55;;
52854;SDS011;38719;51.418;7.286;2022-10-23T03:31:22;2.92;;;2.08;;
52854;SDS011;38719;51.418;7.286;2022-10-23T03:33:49;5.85;;;2.15;;
52854;SDS011;38719;51.418;7.286;2022-10-23T03:36:17;6.90;;;2.55;;
52854;SDS011;38719;51.418;7.286;2022-10-23T03:38:44;3.88;;;2.45;;
52854;SDS011;38719;51.418;7.286;2022-10-23T03:41:12;3.40;;;2.75;;
52854;SDS011;38719;51.418;7.286;2022-10-23T03:43:39;6.03;;;2.22;;
52854;SDS011;38719;51.418;7.286;2022-10-23T03:46:07;3.92;;;2.15;;
52854;SDS011;38719;51.418;7.286;2022-10-23T03:48:39;10.25;;;2.42;;
52854;SDS011;38719;51.418;7.286;2022-10-23T03:51:07;4.18;;;2.30;;
52854;SDS011;38719;51.418;7.286;2022-10-23T03:53:34;2.40;;;2.10;;
52854;SDS011;38719;51.418;7.286;2022-10-23T03:56:03;6.93;;;2.25;;
52854;SDS011;38719;51.418;7.286;2022-10-23T03:58:30;3.55;;;2.30;;
52854;SDS011;38719;51.418;7.286;2022-10-23T04:00:58;7.03;;;2.33;;
52854;SDS011;38719;51.418;7.286;2022-10-23T04:03:25;8.23;;;3.30;;
52854;SDS011;38719;51.418;7.286;2022-10-23T04:05:54;5.35;;;2.40;;
52854;SDS011;38719;51.418;7.286;2022-10-23T04:08:22;7.13;;;2.33;;
52854;SDS011;38719;51.418;7.286;2022-10-23T04:10:49;3.38;;;2.22;;
52854;SDS011;38719;51.418;7.286;2022-10-23T04:13:17;2.90;;;2.13;;
52854;SDS011;38719;51.418;7.286;2022-10-23T04:15:46;9.45;;;2.58;;
52854;SDS011;38719;51.418;7.286;2022-10-23T04:18:15;10.13;;;2.50;;
52854;SDS011;38719;51.418;7.286;2022-10-23T04:20:43;3.17;;;2.17;;
52854;SDS011;38719;51.418;7.286;2022-10-23T04:23:15;6.93;;;3.67;;
52854;SDS011;38719;51.418;7.286;2022-10-23T04:25:43;4.93;;;2.10;;
52854;SDS011;38719;51.418;7.286;2022-10-23T04:28:16;9.23;;;2.47;;
52854;SDS011;38719;51.418;7.286;2022-10-23T04:30:44;8.50;;;2.20;;
52854;SDS011;38719;51.418;7.286;2022-10-23T04:33:11;4.55;;;2.30;;
52854;SDS011;38719;51.418;7.286;2022-10-23T04:35:39;11.15;;;2.78;;
52854;SDS011;38719;51.418;7.286;2022-10-23T04:38:06;11.80;;;2.60;;
52854;SDS011;38719;51.418;7.286;2022-10-23T04:40:35;5.82;;;2.33;;
52854;SDS011;38719;51.418;7.286;2022-10-23T04:43:03;5.05;;;2.80;;
52854;SDS011;38719;51.418;7.286;2022-10-23T04:45:31;4.45;;;2.17;;
52854;SDS011;38719;51.418;7.286;2022-10-23T04:47:58;8.60;;;2.20;;
52854;SDS011;38719;51.418;7.286;2022-10-23T04:50:26;5.13;;;2.25;;
52854;SDS011;38719;51.418;7.286;2022-10-23T04:52:53;10.27;;;2.83;;
52854;SDS011;38719;51.418;7.286;2022-10-23T04:55:22;9.65;;;2.85;;
52854;SDS011;38719;51.418;7.286;2022-10-23T04:57:52;9.38;;;2.97;;
52854;SDS011;38719;51.418;7.286;2022-10-23T05:00:19;5.53;;;2.80;;
52854;SDS011;38719;51.418;7.286;2022-10-23T05:02:47;4.30;;;2.50;;
52854;SDS011;38719;51.418;7.286;2022-10-23T05:05:14;4.72;;;2.80;;
52854;SDS011;38719;51.418;7.286;2022-10-23T05:07:42;5.43;;;2.60;;
52854;SDS011;38719;51.418;7.286;2022-10-23T05:10:10;6.53;;;2.28;;
52854;SDS011;38719;51.418;7.286;2022-10-23T05:12:37;7.03;;;2.50;;
52854;SDS011;38719;51.418;7.286;2022-10-23T05:15:07;6.00;;;2.72;;
52854;SDS011;38719;51.418;7.286;2022-10-23T05:17:35;7.63;;;2.45;;
52854;SDS011;38719;51.418;7.286;2022-10-23T05:20:06;5.53;;;2.22;;
52854;SDS011;38719;51.418;7.286;2022-10-23T05:22:38;7.38;;;2.30;;
52854;SDS011;38719;51.418;7.286;2022-10-23T05:25:08;4.85;;;2.33;;
52854;SDS011;38719;51.418;7.286;2022-10-23T05:27:36;7.32;;;2.20;;
52854;SDS011;38719;51.418;7.286;2022-10-23T05:30:04;17.08;;;2.42;;
52854;SDS011;38719;51.418;7.286;2022-10-23T05:32:34;2.63;;;2.20;;
52854;SDS011;38719;51.418;7.286;2022-10-23T05:35:05;6.45;;;2.17;;
52854;SDS011;38719;51.418;7.286;2022-10-23T05:37:35;4.50;;;2.30;;
52854;SDS011;38719;51.418;7.286;2022-10-23T05:40:04;7.40;;;2.55;;
52854;SDS011;38719;51.418;7.286;2022-10-23T05:42:33;5.70;;;2.53;;
52854;SDS011;38719;51.418;7.286;2022-10-23T05:45:05;4.45;;;2.58;;
52854;SDS011;38719;51.418;7.286;2022-10-23T05:47:34;8.15;;;2.40;;
52854;SDS011;38719;51.418;7.286;2022-10-23T05:50:02;3.33;;;2.40;;
52854;SDS011;38719;51.418;7.286;2022-10-23T05:52:30;11.02;;;2.65;;
52854;SDS011;38719;51.418;7.286;2022-10-23T05:54:57;6.65;;;2.75;;
52854;SDS011;38719;51.418;7.286;2022-10-23T05:57:25;9.02;;;2.10;;
52854;SDS011;38719;51.418;7.286;2022-10-23T05:59:52;7.75;;;2.70;;
52854;SDS011;38719;51.418;7.286;2022-10-23T06:02:20;5.88;;;2.25;;
52854;SDS011;38719;51.418;7.286;2022-10-23T06:04:49;4.20;;;2.30;;
52854;SDS011;38719;51.418;7.286;2022-10-23T06:07:16;5.75;;;2.20;;
52854;SDS011;38719;51.418;7.286;2022-10-23T06:09:49;5.95;;;2.40;;
52854;SDS011;38719;51.418;7.286;2022-10-23T06:12:18;6.70;;;2.53;;
52854;SDS011;38719;51.418;7.286;2022-10-23T06:14:45;3.45;;;2.30;;
52854;SDS011;38719;51.418;7.286;2022-10-23T06:17:13;10.25;;;2.30;;
52854;SDS011;38719;51.418;7.286;2022-10-23T06:19:42;6.03;;;2.40;;
52854;SDS011;38719;51.418;7.286;2022-10-23T06:22:11;5.10;;;2.50;;
52854;SDS011;38719;51.418;7.286;2022-10-23T06:24:39;4.13;;;2.35;;
52854;SDS011;38719;51.418;7.286;2022-10-23T06:27:06;4.57;;;2.25;;
52854;SDS011;38719;51.418;7.286;2022-10-23T06:29:34;8.00;;;2.40;;
52854;SDS011;38719;51.418;7.286;2022-10-23T06:32:01;5.22;;;2.17;;
52854;SDS011;38719;51.418;7.286;2022-10-23T06:34:29;5.88;;;2.20;;
52854;SDS011;38719;51.418;7.286;2022-10-23T06:36:57;7.40;;;2.38;;
52854;SDS011;38719;51.418;7.286;2022-10-23T06:39:25;6.30;;;2.40;;
52854;SDS011;38719;51.418;7.286;2022-10-23T06:41:57;5.50;;;2.20;;
52854;SDS011;38719;51.418;7.286;2022-10-23T06:44:25;3.67;;;2.30;;
52854;SDS011;38719;51.418;7.286;2022-10-23T06:46:52;7.60;;;2.17;;
52854;SDS011;38719;51.418;7.286;2022-10-23T06:49:19;4.03;;;2.17;;
52854;SDS011;38719;51.418;7.286;2022-10-23T06:51:47;4.07;;;2.38;;
52854;SDS011;38719;51.418;7.286;2022-10-23T06:54:14;4.72;;;2.13;;
52854;SDS011;38719;51.418;7.286;2022-10-23T06:56:43;4.72;;;2.20;;
52854;SDS011;38719;51.418;7.286;2022-10-23T06:59:11;6.32;;;2.22;;
52854;SDS011;38719;51.418;7.286;2022-10-23T07:01:39;6.30;;;2.05;;
52854;SDS011;38719;51.418;7.286;2022-10-23T07:04:07;7.90;;;2.67;;
52854;SDS011;38719;51.418;7.286;2022-10-23T07:06:34;2.90;;;1.77;;
52854;SDS011;38719;51.418;7.286;2022-10-23T07:09:02;4.95;;;2.60;;
52854;SDS011;38719;51.418;7.286;2022-10-23T07:11:30;5.80;;;2.85;;
52854;SDS011;38719;51.418;7.286;2022-10-23T07:13:58;4.88;;;2.05;;
52854;SDS011;38719;51.418;7.286;2022-10-23T07:16:26;6.63;;;2.00;;
52854;SDS011;38719;51.418;7.286;2022-10-23T07:18:54;4.13;;;2.03;;
52854;SDS011;38719;51.418;7.286;2022-10-23T07:21:24;6.82;;;2.63;;
52854;SDS011;38719;51.418;7.286;2022-10-23T07:23:52;8.93;;;2.22;;
52854;SDS011;38719;51.418;7.286;2022-10-23T07:26:19;5.93;;;2.38;;
52854;SDS011;38719;51.418;7.286;2022-10-23T07:28:47;9.90;;;2.40;;
52854;SDS011;38719;51.418;7.286;2022-10-23T07:31:17;4.05;;;1.95;;
52854;SDS011;38719;51.418;7.286;2022-10-23T07:33:52;8.20;;;2.70;;
52854;SDS011;38719;51.418;7.286;2022-10-23T07:36:20;4.70;;;2.20;;
52854;SDS011;38719;51.418;7.286;2022-10-23T07:38:47;6.40;;;2.60;;
52854;SDS011;38719;51.418;7.286;2022-10-23T07:41:16;15.73;;;2.30;;
52854;SDS011;38719;51.418;7.286;2022-10-23T07:43:44;4.03;;;2.25;;
52854;SDS011;38719;51.418;7.286;2022-10-23T07:46:12;2.75;;;2.10;;
52854;SDS011;38719;51.418;7.286;2022-10-23T07:48:41;10.63;;;2.40;;
52854;SDS011;38719;51.418;7.286;2022-10-23T07:51:10;4.20;;;2.10;;
52854;SDS011;38719;51.418;7.286;2022-10-23T07:53:39;3.50;;;2.00;;
52854;SDS011;38719;51.418;7.286;2022-10-23T07:56:13;3.75;;;1.92;;
52854;SDS011;38719;51.418;7.286;2022-10-23T07:58:42;3.72;;;1.85;;
52854;SDS011;38719;51.418;7.286;2022-10-23T08:01:12;6.25;;;2.00;;
52854;SDS011;38719;51.418;7.286;2022-10-23T08:03:44;9.93;;;2.20;;
52854;SDS011;38719;51.418;7.286;2022-10-23T08:06:12;6.30;;;2.63;;
52854;SDS011;38719;51.418;7.286;2022-10-23T08:08:40;5.25;;;2.17;;
52854;SDS011;38719;51.418;7.286;2022-10-23T08:11:08;6.88;;;2.03;;
52854;SDS011;38719;51.418;7.286;2022-10-23T08:13:38;5.10;;;2.15;;
52854;SDS011;38719;51.418;7.286;2022-10-23T08:16:06;6.03;;;2.15;;
52854;SDS011;38719;51.418;7.286;2022-10-23T08:18:34;5.47;;;2.08;;
52854;SDS011;38719;51.418;7.286;2022-10-23T08:21:03;5.88;;;2.20;;
52854;SDS011;38719;51.418;7.286;2022-10-23T08:23:30;3.42;;;2.28;;
52854;SDS011;38719;51.418;7.286;2022-10-23T08:25:59;6.25;;;2.00;;
52854;SDS011;38719;51.418;7.286;2022-10-23T08:28:28;7.90;;;2.08;;
52854;SDS011;38719;51.418;7.286;2022-10-23T08:30:55;5.70;;;1.90;;
52854;SDS011;38719;51.418;7.286;2022-10-23T08:33:23;4.28;;;2.00;;
52854;SDS011;38719;51.418;7.286;2022-10-23T08:35:51;4.65;;;2.08;;
52854;SDS011;38719;51.418;7.286;2022-10-23T08:38:19;4.63;;;2.03;;
52854;SDS011;38719;51.418;7.286;2022-10-23T08:40:47;4.57;;;1.90;;
52854;SDS011;38719;51.418;7.286;2022-10-23T08:43:18;8.18;;;2.15;;
52854;SDS011;38719;51.418;7.286;2022-10-23T08:45:52;6.85;;;1.88;;
52854;SDS011;38719;51.418;7.286;2022-10-23T08:48:25;4.38;;;2.42;;
52854;SDS011;38719;51.418;7.286;2022-10-23T08:50:57;6.53;;;1.98;;
52854;SDS011;38719;51.418;7.286;2022-10-23T08:53:35;2.83;;;1.70;;
52854;SDS011;38719;51.418;7.286;2022-10-23T08:56:08;3.40;;;2.13;;
52854;SDS011;38719;51.418;7.286;2022-10-23T08:58:40;3.92;;;1.80;;
52854;SDS011;38719;51.418;7.286;2022-10-23T09:01:21;7.28;;;1.80;;
52854;SDS011;38719;51.418;7.286;2022-10-23T09:03:57;5.43;;;2.22;;
52854;SDS011;38719;51.418;7.286;2022-10-23T09:06:28;6.47;;;1.92;;
52854;SDS011;38719;51.418;7.286;2022-10-23T09:09:07;2.45;;;1.85;;
52854;SDS011;38719;51.418;7.286;2022-10-23T09:11:55;9.02;;;2.35;;
52854;SDS011;38719;51.418;7.286;2022-10-23T09:14:46;5.07;;;1.92;;
52854;SDS011;38719;51.418;7.286;2022-10-23T09:17:23;4.80;;;1.73;;
52854;SDS011;38719;51.418;7.286;2022-10-23T09:19:53;5.55;;;1.90;;
52854;SDS011;38719;51.418;7.286;2022-10-23T09:22:26;6.57;;;2.17;;
52854;SDS011;38719;51.418;7.286;2022-10-23T09:24:56;10.20;;;1.88;;
52854;SDS011;38719;51.418;7.286;2022-10-23T09:27:23;3.72;;;1.65;;
52854;SDS011;38719;51.418;7.286;2022-10-23T09:29:51;6.82;;;1.85;;
52854;SDS011;38719;51.418;7.286;2022-10-23T09:32:30;3.42;;;1.75;;
52854;SDS011;38719;51.418;7.286;2022-10-23T09:34:58;6.68;;;1.80;;
52854;SDS011;38719;51.418;7.286;2022-10-23T09:37:27;2.15;;;1.80;;
52854;SDS011;38719;51.418;7.286;2022-10-23T09:40:01;2.85;;;1.85;;
52854;SDS011;38719;51.418;7.286;2022-10-23T09:42:48;3.67;;;1.75;;
52854;SDS011;38719;51.418;7.286;2022-10-23T09:45:21;5.80;;;1.98;;
52854;SDS011;38719;51.418;7.286;2022-10-23T09:47:49;2.42;;;1.55;;
52854;SDS011;38719;51.418;7.286;2022-10-23T09:50:18;3.40;;;1.70;;
52854;SDS011;38719;51.418;7.286;2022-10-23T09:52:55;1.58;;;1.48;;
52854;SDS011;38719;51.418;7.286;2022-10-23T09:55:24;5.50;;;1.73;;
52854;SDS011;38719;51.418;7.286;2022-10-23T09:57:53;1.58;;;1.48;;
52854;SDS011;38719;51.418;7.286;2022-10-23T10:00:22;3.30;;;1.45;;
52854;SDS011;38719;51.418;7.286;2022-10-23T10:02:54;7.47;;;1.77;;
52854;SDS011;38719;51.418;7.286;2022-10-23T10:05:24;3.78;;;1.45;;
52854;SDS011;38719;51.418;7.286;2022-10-23T10:07:54;7.03;;;1.95;;
52854;SDS011;38719;51.418;7.286;2022-10-23T10:10:25;3.78;;;1.65;;
52854;SDS011;38719;51.418;7.286;2022-10-23T10:13:00;2.10;;;1.80;;
52854;SDS011;38719;51.418;7.286;2022-10-23T10:15:41;6.00;;;1.70;;
52854;SDS011;38719;51.418;7.286;2022-10-23T10:18:16;4.75;;;1.77;;
52854;SDS011;38719;51.418;7.286;2022-10-23T10:20:54;5.13;;;1.90;;
52854;SDS011;38719;51.418;7.286;2022-10-23T10:23:34;6.90;;;1.77;;
52854;SDS011;38719;51.418;7.286;2022-10-23T10:26:13;5.63;;;1.90;;
52854;SDS011;38719;51.418;7.286;2022-10-23T10:28:54;4.93;;;1.92;;
52854;SDS011;38719;51.418;7.286;2022-10-23T10:31:30;5.18;;;1.90;;
52854;SDS011;38719;51.418;7.286;2022-10-23T10:34:09;4.95;;;2.03;;
52854;SDS011;38719;51.418;7.286;2022-10-23T10:36:46;8.27;;;1.88;;
52854;SDS011;38719;51.418;7.286;2022-10-23T10:39:22;2.67;;;1.77;;
52854;SDS011;38719;51.418;7.286;2022-10-23T10:42:12;4.50;;;1.90;;
52854;SDS011;38719;51.418;7.286;2022-10-23T10:45:02;6.65;;;1.70;;
52854;SDS011;38719;51.418;7.286;2022-10-23T10:47:42;3.55;;;1.50;;
52854;SDS011;38719;51.418;7.286;2022-10-23T10:50:22;5.70;;;1.95;;
52854;SDS011;38719;51.418;7.286;2022-10-23T10:52:56;2.42;;;1.65;;
52854;SDS011;38719;51.418;7.286;2022-10-23T10:58:02;2.47;;;1.90;;
52854;SDS011;38719;51.418;7.286;2022-10-23T11:00:36;2.20;;;1.80;;
52854;SDS011;38719;51.418;7.286;2022-10-23T11:03:10;3.63;;;2.10;;
52854;SDS011;38719;51.418;7.286;2022-10-23T11:05:51;1.80;;;1.60;;
52854;SDS011;38719;51.418;7.286;2022-10-23T11:08:22;5.00;;;1.95;;
52854;SDS011;38719;51.418;7.286;2022-10-23T11:11:20;6.45;;;1.83;;
52854;SDS011;38719;51.418;7.286;2022-10-23T11:13:54;4.55;;;1.77;;
52854;SDS011;38719;51.418;7.286;2022-10-23T11:16:23;7.95;;;2.10;;
52854;SDS011;38719;51.418;7.286;2022-10-23T11:18:58;5.78;;;1.83;;
52854;SDS011;38719;51.418;7.286;2022-10-23T11:21:39;3.30;;;1.70;;
52854;SDS011;38719;51.418;7.286;2022-10-23T11:24:20;2.50;;;1.77;;
52854;SDS011;38719;51.418;7.286;2022-10-23T11:30:20;6.60;;;2.03;;
52854;SDS011;38719;51.418;7.286;2022-10-23T11:36:02;5.65;;;1.90;;
52854;SDS011;38719;51.418;7.286;2022-10-23T11:38:32;3.85;;;1.60;;
52854;SDS011;38719;51.418;7.286;2022-10-23T11:41:03;4.15;;;1.83;;
52854;SDS011;38719;51.418;7.286;2022-10-23T11:43:33;2.47;;;1.67;;
52854;SDS011;38719;51.418;7.286;2022-10-23T11:46:24;1.80;;;1.58;;
52854;SDS011;38719;51.418;7.286;2022-10-23T11:48:55;2.15;;;1.65;;
52854;SDS011;38719;51.418;7.286;2022-10-23T11:51:25;2.83;;;1.55;;
52854;SDS011;38719;51.418;7.286;2022-10-23T11:54:03;3.38;;;2.20;;
52854;SDS011;38719;51.418;7.286;2022-10-23T11:56:33;1.55;;;1.42;;
52854;SDS011;38719;51.418;7.286;2022-10-23T11:59:16;9.52;;;2.05;;
52854;SDS011;38719;51.418;7.286;2022-10-23T12:01:50;3.17;;;1.52;;
52854;SDS011;38719;51.418;7.286;2022-10-23T12:04:20;2.05;;;1.45;;
52854;SDS011;38719;51.418;7.286;2022-10-23T12:06:51;2.08;;;1.40;;
52854;SDS011;38719;51.418;7.286;2022-10-23T12:09:23;3.17;;;1.60;;
52854;SDS011;38719;51.418;7.286;2022-10-23T12:14:53;1.73;;;1.63;;
52854;SDS011;38719;51.418;7.286;2022-10-23T12:17:35;2.50;;;1.63;;
52854;SDS011;38719;51.418;7.286;2022-10-23T12:22:59;4.53;;;1.67;;
52854;SDS011;38719;51.418;7.286;2022-10-23T12:25:38;5.15;;;1.65;;
52854;SDS011;38719;51.418;7.286;2022-10-23T12:28:19;2.70;;;1.75;;
52854;SDS011;38719;51.418;7.286;2022-10-23T12:30:57;5.32;;;2.00;;
52854;SDS011;38719;51.418;7.286;2022-10-23T12:33:41;12.15;;;1.90;;
52854;SDS011;38719;51.418;7.286;2022-10-23T12:36:19;3.13;;;1.70;;
52854;SDS011;38719;51.418;7.286;2022-10-23T12:38:56;4.97;;;1.73;;
52854;SDS011;38719;51.418;7.286;2022-10-23T12:41:24;8.98;;;1.77;;
52854;SDS011;38719;51.418;7.286;2022-10-23T12:43:53;3.50;;;1.80;;
52854;SDS011;38719;51.418;7.286;2022-10-23T12:46:26;8.60;;;2.10;;
52854;SDS011;38719;51.418;7.286;2022-10-23T12:48:59;10.70;;;2.20;;
52854;SDS011;38719;51.418;7.286;2022-10-23T12:51:30;6.72;;;2.10;;
52854;SDS011;38719;51.418;7.286;2022-10-23T12:53:59;17.92;;;2.38;;
52854;SDS011;38719;51.418;7.286;2022-10-23T12:56:32;9.48;;;2.45;;
52854;SDS011;38719;51.418;7.286;2022-10-23T12:59:01;17.55;;;2.63;;
52854;SDS011;38719;51.418;7.286;2022-10-23T13:01:31;9.30;;;2.20;;
52854;SDS011;38719;51.418;7.286;2022-10-23T13:04:04;4.85;;;2.17;;
52854;SDS011;38719;51.418;7.286;2022-10-23T13:06:37;5.32;;;2.00;;
52854;SDS011;38719;51.418;7.286;2022-10-23T13:09:06;4.57;;;2.20;;
52854;SDS011;38719;51.418;7.286;2022-10-23T13:11:46;6.55;;;2.65;;
52854;SDS011;38719;51.418;7.286;2022-10-23T13:14:23;7.57;;;2.00;;
52854;SDS011;38719;51.418;7.286;2022-10-23T13:16:59;13.82;;;3.22;;
52854;SDS011;38719;51.418;7.286;2022-10-23T13:19:29;7.00;;;2.00;;
52854;SDS011;38719;51.418;7.286;2022-10-23T13:21:57;6.03;;;2.50;;
52854;SDS011;38719;51.418;7.286;2022-10-23T13:24:26;12.65;;;2.30;;
52854;SDS011;38719;51.418;7.286;2022-10-23T13:26:55;4.30;;;1.95;;
52854;SDS011;38719;51.418;7.286;2022-10-23T13:29:24;3.83;;;2.22;;
52854;SDS011;38719;51.418;7.286;2022-10-23T13:31:55;5.28;;;2.35;;
52854;SDS011;38719;51.418;7.286;2022-10-23T13:34:24;4.05;;;2.10;;
52854;SDS011;38719;51.418;7.286;2022-10-23T13:37:02;4.50;;;2.22;;
52854;SDS011;38719;51.418;7.286;2022-10-23T13:39:57;9.65;;;2.20;;
52854;SDS011;38719;51.418;7.286;2022-10-23T13:42:25;4.22;;;2.10;;
52854;SDS011;38719;51.418;7.286;2022-10-23T13:44:53;6.35;;;2.22;;
52854;SDS011;38719;51.418;7.286;2022-10-23T13:47:21;6.57;;;2.17;;
52854;SDS011;38719;51.418;7.286;2022-10-23T13:49:48;7.10;;;2.25;;
52854;SDS011;38719;51.418;7.286;2022-10-23T13:52:18;12.55;;;2.30;;
52854;SDS011;38719;51.418;7.286;2022-10-23T13:54:48;4.38;;;2.10;;
52854;SDS011;38719;51.418;7.286;2022-10-23T13:57:16;4.80;;;2.20;;
52854;SDS011;38719;51.418;7.286;2022-10-23T13:59:43;5.78;;;2.42;;
52854;SDS011;38719;51.418;7.286;2022-10-23T14:02:13;2.35;;;2.00;;
52854;SDS011;38719;51.418;7.286;2022-10-23T14:04:46;5.78;;;2.15;;
52854;SDS011;38719;51.418;7.286;2022-10-23T14:07:13;8.32;;;2.60;;
52854;SDS011;38719;51.418;7.286;2022-10-23T14:09:42;8.77;;;2.40;;
52854;SDS011;38719;51.418;7.286;2022-10-23T14:12:10;4.05;;;2.42;;
52854;SDS011;38719;51.418;7.286;2022-10-23T14:14:38;12.52;;;2.17;;
52854;SDS011;38719;51.418;7.286;2022-10-23T14:17:06;4.32;;;2.15;;
52854;SDS011;38719;51.418;7.286;2022-10-23T14:19:33;8.48;;;2.58;;
52854;SDS011;38719;51.418;7.286;2022-10-23T14:22:02;6.85;;;2.40;;
52854;SDS011;38719;51.418;7.286;2022-10-23T14:24:29;10.15;;;2.00;;
52854;SDS011;38719;51.418;7.286;2022-10-23T14:26:58;7.18;;;2.13;;
52854;SDS011;38719;51.418;7.286;2022-10-23T14:29:25;6.60;;;2.10;;
52854;SDS011;38719;51.418;7.286;2022-10-23T14:31:53;3.58;;;2.50;;
52854;SDS011;38719;51.418;7.286;2022-10-23T14:34:21;5.93;;;2.22;;
52854;SDS011;38719;51.418;7.286;2022-10-23T14:36:48;5.38;;;2.17;;
52854;SDS011;38719;51.418;7.286;2022-10-23T14:39:33;4.53;;;1.83;;
52854;SDS011;38719;51.418;7.286;2022-10-23T14:42:02;2.65;;;2.08;;
52854;SDS011;38719;51.418;7.286;2022-10-23T14:44:30;3.55;;;2.40;;
52854;SDS011;38719;51.418;7.286;2022-10-23T14:46:57;16.63;;;2.58;;
52854;SDS011;38719;51.418;7.286;2022-10-23T14:49:25;10.23;;;2.50;;
52854;SDS011;38719;51.418;7.286;2022-10-23T14:51:52;2.78;;;1.98;;
52854;SDS011;38719;51.418;7.286;2022-10-23T14:54:20;3.47;;;2.13;;
52854;SDS011;38719;51.418;7.286;2022-10-23T14:56:47;8.48;;;2.30;;
52854;SDS011;38719;51.418;7.286;2022-10-23T14:59:16;9.43;;;2.15;;
52854;SDS011;38719;51.418;7.286;2022-10-23T15:01:44;9.18;;;2.38;;
52854;SDS011;38719;51.418;7.286;2022-10-23T15:04:13;6.07;;;1.90;;
52854;SDS011;38719;51.418;7.286;2022-10-23T15:06:41;5.82;;;2.40;;
52854;SDS011;38719;51.418;7.286;2022-10-23T15:09:09;4.97;;;2.17;;
52854;SDS011;38719;51.418;7.286;2022-10-23T15:11:36;6.60;;;2.00;;
52854;SDS011;38719;51.418;7.286;2022-10-23T15:14:04;3.40;;;2.10;;
52854;SDS011;38719;51.418;7.286;2022-10-23T15:16:34;5.07;;;1.95;;
52854;SDS011;38719;51.418;7.286;2022-10-23T15:19:06;5.88;;;2.25;;
52854;SDS011;38719;51.418;7.286;2022-10-23T15:21:38;4.70;;;2.03;;
52854;SDS011;38719;51.418;7.286;2022-10-23T15:24:06;7.93;;;2.45;;